Time;durP1;ratioP1;P1;durP2;ratioP2;P2;SDS_P1;SDS_P2;PMS_P1;PMS_P2;Temp;Humidity;BMP_temperature;BMP_pressure;BME280_temperature;BME280_humidity;BME280_pressure;Samples;Min_cycle;Max_cycle;Signal;HPM_P1;HPM_P2
2023/05/19 00:01:09;;;;;;;9.50;7.20;;;;;;;26.99;39.48;99896.66;4901304;29;20048;-69
2023/05/19 00:03:39;;;;;;;12.43;6.95;;;;;;;27.13;39.18;99900.63;4916854;29;20172;-68
2023/05/19 00:06:07;;;;;;;9.57;6.47;;;;;;;27.15;39.19;99903.91;4937056;28;20400;-69
2023/05/19 00:08:33;;;;;;;9.13;6.53;;;;;;;27.13;38.90;99903.34;4939487;28;20059;-69
2023/05/19 00:11:01;;;;;;;11.68;6.85;;;;;;;27.19;39.04;99905.88;4942572;28;20388;-68
2023/05/19 00:13:27;;;;;;;11.25;6.85;;;;;;;27.34;38.28;99910.69;4990433;28;20771;-69
2023/05/19 00:15:53;;;;;;;9.25;6.35;;;;;;;27.36;38.20;99912.06;4974336;28;20408;-68
2023/05/19 00:18:20;;;;;;;8.75;6.47;;;;;;;27.37;38.08;99915.63;4974472;28;20057;-69
2023/05/19 00:20:46;;;;;;;8.13;6.18;;;;;;;27.36;37.94;99916.69;4958053;28;20485;-69
2023/05/19 00:23:12;;;;;;;8.63;6.57;;;;;;;27.32;38.33;99912.84;4942211;28;20105;-68
2023/05/19 00:25:40;;;;;;;9.77;6.55;;;;;;;27.50;38.66;99910.53;4973820;28;20396;-69
2023/05/19 00:28:06;;;;;;;12.13;6.95;;;;;;;27.30;38.38;99918.56;4957099;28;20040;-69
2023/05/19 00:30:32;;;;;;;7.28;5.82;;;;;;;27.32;38.21;99924.59;4929823;28;20053;-68
2023/05/19 00:32:59;;;;;;;10.65;6.20;;;;;;;27.30;38.48;99925.91;4974952;28;20049;-68
2023/05/19 00:35:25;;;;;;;9.50;5.78;;;;;;;27.26;38.40;99931.03;4974661;28;20117;-68
2023/05/19 00:37:51;;;;;;;7.63;5.35;;;;;;;27.21;38.33;99930.16;4971491;28;20054;-68
2023/05/19 00:40:17;;;;;;;10.93;4.65;;;;;;;27.20;38.51;99931.25;4955799;28;20053;-68
2023/05/19 00:42:43;;;;;;;6.85;4.10;;;;;;;27.13;38.40;99925.16;4990176;28;20057;-68
2023/05/19 00:45:11;;;;;;;6.85;3.85;;;;;;;27.28;38.21;99931.63;4961471;28;20142;-68
2023/05/19 00:47:37;;;;;;;9.70;3.90;;;;;;;27.11;38.22;99930.88;4961553;28;20074;-68
2023/05/19 00:50:03;;;;;;;4.50;3.33;;;;;;;27.17;38.27;99926.31;4961850;28;20050;-68
2023/05/19 00:52:30;;;;;;;6.13;3.53;;;;;;;27.07;38.11;99928.94;4977497;28;20120;-68
2023/05/19 00:54:56;;;;;;;5.40;3.50;;;;;;;27.04;38.50;99932.16;4954962;29;20066;-68
2023/05/19 00:57:22;;;;;;;5.32;3.10;;;;;;;27.00;38.00;99923.69;4933316;29;20078;-68
2023/05/19 00:59:49;;;;;;;5.53;3.05;;;;;;;27.01;38.04;99927.22;4904313;29;20051;-68
2023/05/19 01:02:15;;;;;;;3.97;3.17;;;;;;;27.01;38.16;99932.69;4950342;28;20054;-68
2023/05/19 01:04:45;;;;;;;3.70;2.88;;;;;;;27.19;38.39;99935.88;4958064;28;20050;-67
2023/05/19 01:07:12;;;;;;;6.20;3.28;;;;;;;26.98;38.34;99936.75;4958112;28;20049;-68
2023/05/19 01:09:39;;;;;;;5.07;3.00;;;;;;;27.04;37.99;99938.47;4958052;28;20053;-67
2023/05/19 01:12:08;;;;;;;5.17;3.00;;;;;;;27.03;38.22;99934.06;4965361;28;20049;-69
2023/05/19 01:14:34;;;;;;;3.13;2.80;;;;;;;26.96;38.32;99946.25;4964581;28;20317;-68
2023/05/19 01:17:19;;;;;;;3.65;3.03;;;;;;;27.20;38.56;99931.25;4964274;28;20152;-68
2023/05/19 01:20:00;;;;;;;3.22;2.50;;;;;;;27.25;38.51;99939.44;4980730;28;20053;-69
2023/05/19 01:22:55;;;;;;;3.45;2.95;;;;;;;27.12;38.79;99939.91;5012847;28;20551;-69
2023/05/19 01:25:33;;;;;;;4.50;2.50;;;;;;;27.14;38.78;99944.00;5018267;28;20045;-68
2023/05/19 01:28:14;;;;;;;5.65;3.00;;;;;;;27.04;39.14;99941.19;4999825;28;20056;-68
2023/05/19 01:30:44;;;;;;;2.78;2.55;;;;;;;26.87;39.46;99951.34;4999599;28;20049;-68
2023/05/19 01:33:13;;;;;;;2.50;2.30;;;;;;;26.86;39.52;99949.72;4999706;28;20430;-69
2023/05/19 01:35:41;;;;;;;3.75;2.20;;;;;;;26.71;39.39;99949.53;4999598;28;20048;-68
2023/05/19 01:38:10;;;;;;;3.95;2.22;;;;;;;26.81;39.14;99954.28;4999815;28;20165;-69
2023/05/19 01:40:42;;;;;;;3.88;1.90;;;;;;;26.69;39.27;99957.16;4984004;28;20479;-68
2023/05/19 01:43:12;;;;;;;1.65;1.55;;;;;;;26.68;39.00;99949.25;4954118;28;20047;-68
2023/05/19 01:45:39;;;;;;;2.92;1.30;;;;;;;26.58;38.93;99957.25;4938186;29;20506;-68
2023/05/19 01:48:06;;;;;;;3.38;1.60;;;;;;;26.48;38.84;99965.31;4922483;29;20055;-68
2023/05/19 01:50:33;;;;;;;1.58;1.13;;;;;;;26.51;38.92;99967.53;4906535;29;20149;-68
2023/05/19 01:53:00;;;;;;;1.48;1.38;;;;;;;26.40;38.78;99966.56;4890687;28;20055;-68
2023/05/19 01:55:27;;;;;;;1.83;1.63;;;;;;;26.46;38.91;99969.09;4906509;29;20078;-67
2023/05/19 01:58:10;;;;;;;3.90;1.35;;;;;;;26.54;38.84;99973.25;4956127;28;20141;-68
2023/05/19 02:00:53;;;;;;;3.30;1.50;;;;;;;26.60;38.43;99968.72;4957185;28;20058;-68
2023/05/19 02:03:42;;;;;;;2.85;1.20;;;;;;;26.60;38.48;99974.97;4940947;28;20054;-68
2023/05/19 02:06:32;;;;;;;6.25;1.60;;;;;;;26.46;39.06;99976.44;4957174;28;20050;-68
2023/05/19 02:09:05;;;;;;;6.30;1.60;;;;;;;26.40;38.97;99969.28;4932844;28;20632;-68
2023/05/19 02:11:41;;;;;;;2.00;1.20;;;;;;;26.27;38.81;99962.31;4976180;28;20049;-68
2023/05/19 02:14:19;;;;;;;4.53;1.40;;;;;;;26.39;38.87;99967.63;4973710;28;20057;-68
2023/05/19 02:16:47;;;;;;;1.75;1.20;;;;;;;26.12;38.67;99958.56;4937194;29;20063;-68
2023/05/19 02:19:29;;;;;;;3.67;1.40;;;;;;;26.15;39.01;99968.94;4921875;29;20055;-69
2023/05/19 02:21:55;;;;;;;7.20;1.50;;;;;;;25.80;39.20;99966.47;4921370;29;20062;-69
2023/05/19 02:24:21;;;;;;;2.25;1.40;;;;;;;25.81;39.11;99970.84;4899452;29;20150;-69
2023/05/19 02:26:51;;;;;;;3.03;1.73;;;;;;;26.02;39.47;99983.72;4899215;29;20145;-69
2023/05/19 02:29:19;;;;;;;3.00;1.90;;;;;;;25.80;39.99;99982.78;4915410;29;20052;-69
2023/05/19 02:31:45;;;;;;;5.18;1.98;;;;;;;25.69;40.14;99975.56;4880408;29;20060;-69
2023/05/19 02:34:11;;;;;;;5.93;2.00;;;;;;;25.67;40.08;99977.69;4880029;29;20150;-69
2023/05/19 02:36:41;;;;;;;4.32;1.80;;;;;;;25.86;40.28;99978.28;4886929;29;20138;-69
2023/05/19 02:39:09;;;;;;;2.97;1.70;;;;;;;25.63;40.64;99979.25;4934034;29;20067;-69
2023/05/19 02:41:37;;;;;;;3.28;1.40;;;;;;;25.63;40.74;99989.31;4917935;29;20056;-69
2023/05/19 02:44:04;;;;;;;2.60;1.40;;;;;;;25.49;40.59;99985.28;4918148;29;20059;-69
2023/05/19 02:46:31;;;;;;;1.25;1.15;;;;;;;25.30;40.58;99987.38;4887291;29;20086;-69
2023/05/19 02:48:57;;;;;;;7.55;1.70;;;;;;;25.21;40.43;99986.13;4921010;29;20087;-68
2023/05/19 02:51:23;;;;;;;5.10;1.88;;;;;;;25.21;40.14;99990.72;4905679;29;20047;-69
2023/05/19 02:53:50;;;;;;;6.50;2.90;;;;;;;25.10;39.91;99994.31;4972892;28;20050;-69
2023/05/19 02:56:17;;;;;;;5.43;2.28;;;;;;;24.91;39.74;100004.53;4979460;28;20057;-68
2023/05/19 02:58:44;;;;;;;7.90;1.95;;;;;;;24.82;39.79;100001.41;5014538;28;20079;-67
2023/05/19 03:01:10;;;;;;;5.68;2.25;;;;;;;24.60;39.92;99997.63;5014860;28;20447;-68
2023/05/19 03:03:37;;;;;;;3.83;2.40;;;;;;;24.57;39.63;100006.25;5029835;28;20099;-68
2023/05/19 03:06:03;;;;;;;5.47;2.50;;;;;;;24.44;39.33;100011.13;5002219;28;20041;-68
2023/05/19 03:08:29;;;;;;;3.85;2.55;;;;;;;24.18;39.49;100003.50;5004361;28;20470;-69
2023/05/19 03:10:55;;;;;;;6.25;2.42;;;;;;;24.15;39.04;100012.13;5021700;28;20045;-69
2023/05/19 03:13:21;;;;;;;5.10;2.22;;;;;;;24.15;39.06;100020.25;5021932;28;20044;-69
2023/05/19 03:15:49;;;;;;;8.23;2.53;;;;;;;24.08;38.79;100020.38;5037809;28;20047;-69
2023/05/19 03:18:15;;;;;;;5.72;2.40;;;;;;;24.11;38.84;100032.66;5022041;28;20414;-69
2023/05/19 03:20:43;;;;;;;4.35;2.30;;;;;;;24.21;38.80;100032.88;5018097;28;20048;-69
2023/05/19 03:23:09;;;;;;;4.20;2.63;;;;;;;24.22;38.55;100029.09;5050795;28;20036;-69
2023/05/19 03:25:36;;;;;;;8.52;2.33;;;;;;;24.10;38.17;100028.28;5036311;28;20150;-69
2023/05/19 03:28:02;;;;;;;8.50;2.20;;;;;;;24.11;37.99;100036.19;5012463;28;20041;-70
2023/05/19 03:30:28;;;;;;;3.17;2.22;;;;;;;24.20;37.73;100042.91;4980467;28;20075;-70
2023/05/19 03:33:10;;;;;;;6.32;2.30;;;;;;;24.39;37.39;100046.31;4945624;28;20049;-70
2023/05/19 03:35:43;;;;;;;2.95;2.10;;;;;;;24.13;36.61;100041.38;4977005;28;20049;-69
2023/05/19 03:38:12;;;;;;;3.47;2.00;;;;;;;24.38;35.73;100055.53;4962489;28;20140;-70
2023/05/19 03:40:42;;;;;;;2.25;1.98;;;;;;;24.08;35.40;100049.41;4979167;28;20047;-69
2023/05/19 03:43:12;;;;;;;4.13;1.80;;;;;;;23.95;35.21;100061.28;4979219;28;20037;-69
2023/05/19 03:45:45;;;;;;;5.70;2.00;;;;;;;23.90;35.01;100057.59;4963472;28;20163;-68
2023/05/19 03:48:33;;;;;;;8.00;2.00;;;;;;;23.85;34.31;100054.78;4968776;28;20120;-69
2023/05/19 03:51:27;;;;;;;4.53;2.20;;;;;;;24.04;34.14;100064.50;4934621;29;20117;-69
2023/05/19 03:53:57;;;;;;;4.30;2.03;;;;;;;23.96;34.15;100067.53;4899909;29;20118;-69
2023/05/19 03:56:25;;;;;;;7.90;2.35;;;;;;;24.03;34.32;100073.72;4899773;29;20070;-69
2023/05/19 03:58:56;;;;;;;9.50;2.40;;;;;;;24.30;34.02;100064.03;4917559;28;20054;-69
2023/05/19 04:01:22;;;;;;;5.00;2.25;;;;;;;24.42;33.99;100073.00;4970655;28;20405;-69
2023/05/19 04:03:48;;;;;;;5.47;2.17;;;;;;;24.50;33.70;100072.66;4940557;28;20059;-69
2023/05/19 04:06:14;;;;;;;3.53;2.33;;;;;;;24.52;33.25;100081.41;4957526;28;20159;-71
2023/05/19 04:09:33;;;;;;;4.88;2.50;;;;;;;24.98;32.85;100081.34;4954606;28;20438;-76
2023/05/19 04:12:01;;;;;;;6.93;2.40;;;;;;;24.71;32.97;100085.63;4920979;28;20151;-71
2023/05/19 04:14:27;;;;;;;10.45;2.50;;;;;;;24.57;33.17;100074.16;4922161;28;20066;-71
2023/05/19 04:16:53;;;;;;;7.25;2.42;;;;;;;24.69;33.43;100082.34;4922148;28;20050;-70
2023/05/19 04:19:19;;;;;;;5.97;2.85;;;;;;;24.65;33.55;100083.84;4949381;28;20137;-72
2023/05/19 04:21:47;;;;;;;4.47;2.45;;;;;;;24.67;33.59;100076.31;4993151;28;20054;-75
2023/05/19 04:24:14;;;;;;;6.55;2.90;;;;;;;24.67;32.93;100079.03;4964332;28;20551;-68
2023/05/19 04:26:44;;;;;;;6.75;2.60;;;;;;;24.72;33.20;100085.41;5003630;28;20045;-70
2023/05/19 04:29:12;;;;;;;7.57;2.80;;;;;;;24.72;33.31;100081.88;5004269;28;20063;-72
2023/05/19 04:31:41;;;;;;;5.13;2.95;;;;;;;24.78;33.10;100084.47;5003281;28;20045;-75
2023/05/19 04:34:07;;;;;;;10.75;2.47;;;;;;;24.78;33.04;100084.47;5037027;28;20075;-74
2023/05/19 04:36:33;;;;;;;6.95;2.70;;;;;;;24.67;33.14;100076.31;5000336;28;20048;-70
2023/05/19 04:39:02;;;;;;;10.23;3.00;;;;;;;24.55;33.23;100079.03;5001629;28;20110;-69
2023/05/19 04:41:28;;;;;;;7.28;2.83;;;;;;;24.36;33.68;100079.38;5018066;28;20049;-70
2023/05/19 04:43:56;;;;;;;6.10;3.00;;;;;;;24.36;33.69;100077.50;5034732;28;20114;-70
2023/05/19 04:46:24;;;;;;;4.78;2.60;;;;;;;24.40;33.68;100073.25;5002094;28;20044;-69
2023/05/19 04:48:54;;;;;;;8.38;3.25;;;;;;;24.34;33.69;100076.09;5034656;28;20065;-71
2023/05/19 04:51:26;;;;;;;10.23;3.75;;;;;;;24.47;33.55;100083.97;5001770;28;20040;-69
2023/05/19 04:53:56;;;;;;;6.28;2.95;;;;;;;24.51;33.63;100082.44;5052530;28;20041;-68
2023/05/19 04:56:23;;;;;;;5.78;3.35;;;;;;;24.14;33.79;100075.63;5022203;28;20056;-68
2023/05/19 04:58:49;;;;;;;4.35;2.90;;;;;;;24.11;33.91;100086.94;5012996;28;20078;-66
2023/05/19 05:01:16;;;;;;;5.25;2.92;;;;;;;24.03;34.16;100092.72;5042484;28;20051;-67
2023/05/19 05:03:50;;;;;;;4.93;2.90;;;;;;;24.25;34.40;100094.59;5027040;28;20093;-68
2023/05/19 05:06:16;;;;;;;9.18;3.22;;;;;;;24.07;34.04;100096.59;5054933;28;20072;-67
2023/05/19 05:08:42;;;;;;;9.85;3.47;;;;;;;24.05;34.17;100096.03;5010315;28;20058;-68
2023/05/19 05:11:09;;;;;;;6.10;2.97;;;;;;;24.13;34.01;100098.38;5059190;28;20048;-67
2023/05/19 05:13:36;;;;;;;4.85;2.97;;;;;;;24.13;34.29;100099.22;5053618;28;20063;-67
2023/05/19 05:16:05;;;;;;;8.57;3.05;;;;;;;24.04;34.10;100102.50;5009961;28;20044;-68
2023/05/19 05:18:33;;;;;;;7.70;3.58;;;;;;;24.17;33.90;100102.28;5026103;28;20071;-68
2023/05/19 05:20:59;;;;;;;12.70;4.30;;;;;;;23.95;34.33;100109.28;5075697;28;20055;-68
2023/05/19 05:23:25;;;;;;;7.82;3.65;;;;;;;24.04;34.12;100106.03;5026029;28;20032;-67
2023/05/19 05:25:51;;;;;;;6.05;3.55;;;;;;;24.05;34.18;100104.97;5041790;28;20040;-67
2023/05/19 05:28:18;;;;;;;9.52;4.07;;;;;;;23.96;34.18;100109.09;5039753;28;20115;-67
2023/05/19 05:30:46;;;;;;;7.88;4.65;;;;;;;24.03;34.47;100109.00;5026357;28;20051;-74
2023/05/19 05:33:13;;;;;;;9.25;4.68;;;;;;;23.96;34.39;100116.38;5010418;28;20032;-67
2023/05/19 05:35:40;;;;;;;7.68;4.43;;;;;;;24.01;34.66;100120.06;5058956;28;20036;-67
2023/05/19 05:38:10;;;;;;;7.68;4.00;;;;;;;24.03;34.64;100117.13;5042413;28;20051;-68
2023/05/19 05:40:37;;;;;;;9.52;3.80;;;;;;;24.14;34.34;100119.03;5036994;28;20028;-68
2023/05/19 05:43:04;;;;;;;8.70;3.78;;;;;;;24.17;34.57;100122.09;5055744;28;20048;-68
2023/05/19 05:45:34;;;;;;;4.43;3.30;;;;;;;24.20;34.56;100135.19;5074521;28;20486;-68
2023/05/19 05:48:01;;;;;;;6.30;4.30;;;;;;;24.55;34.47;100136.06;5055348;28;20029;-69
2023/05/19 05:50:27;;;;;;;6.13;3.80;;;;;;;24.37;34.87;100136.16;5038754;28;20036;-69
2023/05/19 05:52:54;;;;;;;6.32;4.13;;;;;;;24.38;34.79;100137.84;5062892;28;20437;-70
2023/05/19 05:55:21;;;;;;;9.93;5.00;;;;;;;24.29;35.04;100138.41;5058026;28;20160;-69
2023/05/19 05:57:49;;;;;;;9.15;5.03;;;;;;;24.34;35.24;100130.41;5056114;28;20116;-69
2023/05/19 06:00:16;;;;;;;8.05;4.72;;;;;;;24.39;35.52;100139.47;5059017;28;20052;-67
2023/05/19 06:02:46;;;;;;;11.50;5.05;;;;;;;24.56;35.29;100136.88;5058462;28;20378;-69
2023/05/19 06:05:12;;;;;;;9.57;5.60;;;;;;;24.38;35.36;100139.72;5025179;28;20131;-69
2023/05/19 06:07:40;;;;;;;6.65;4.95;;;;;;;24.56;35.16;100151.28;5058155;28;20134;-68
2023/05/19 06:10:11;;;;;;;9.23;5.43;;;;;;;24.56;35.71;100153.19;5058619;28;20139;-69
2023/05/19 06:12:42;;;;;;;8.30;5.00;;;;;;;24.40;35.33;100151.19;5041326;28;20048;-70
2023/05/19 06:15:08;;;;;;;;;;;;;;;24.84;34.73;100143.28;5059311;28;20174;-70
2023/05/19 06:17:58;;;;;;;7.65;4.25;;;;;;;24.21;35.25;100153.16;5038879;28;19928;-68
2023/05/19 06:20:25;;;;;;;11.77;4.68;;;;;;;24.24;35.62;100147.25;5038047;28;20052;-68
2023/05/19 06:22:51;;;;;;;9.00;4.70;;;;;;;24.15;35.67;100147.84;5038711;28;20048;-69
2023/05/19 06:25:21;;;;;;;8.35;4.22;;;;;;;23.98;35.70;100136.00;5054625;28;20036;-68
2023/05/19 06:27:47;;;;;;;7.18;4.45;;;;;;;24.04;35.73;100137.78;5038093;28;20048;-67
2023/05/19 06:30:13;;;;;;;9.57;4.68;;;;;;;24.19;35.89;100146.28;5055062;28;20060;-69
2023/05/19 06:32:52;;;;;;;9.43;4.60;;;;;;;23.98;36.48;100150.41;5023076;28;20036;-68
2023/05/19 06:35:18;;;;;;;5.28;4.28;;;;;;;24.08;36.13;100144.41;5038088;28;20040;-68
2023/05/19 06:37:43;;;;;;;8.07;4.72;;;;;;;24.14;36.45;100151.63;5054913;28;20074;-68
2023/05/19 06:40:10;;;;;;;8.85;5.68;;;;;;;24.19;36.81;100149.84;5037094;28;20048;-69
2023/05/19 06:42:38;;;;;;;5.95;4.68;;;;;;;24.10;36.72;100155.84;5038186;28;20037;-69
2023/05/19 06:45:13;;;;;;;8.63;4.95;;;;;;;24.21;36.84;100160.47;5023216;28;20483;-69
2023/05/19 06:47:43;;;;;;;8.20;5.47;;;;;;;24.20;36.90;100166.97;5037952;28;20047;-67
2023/05/19 06:50:09;;;;;;;7.87;5.37;;;;;;;24.30;37.04;100161.78;5055022;28;20101;-69
2023/05/19 06:52:38;;;;;;;9.05;5.70;;;;;;;24.34;36.77;100168.41;5021701;28;20076;-68
2023/05/19 06:55:05;;;;;;;7.53;5.90;;;;;;;24.36;37.24;100161.69;5060773;28;20520;-69
2023/05/19 06:57:32;;;;;;;8.25;5.68;;;;;;;24.27;37.38;100167.66;5040469;28;20056;-69
2023/05/19 06:59:59;;;;;;;7.70;5.95;;;;;;;24.28;37.45;100164.72;5041102;28;20056;-69
2023/05/19 07:02:26;;;;;;;9.27;6.70;;;;;;;24.44;37.37;100163.22;5080346;28;20043;-68
2023/05/19 07:04:52;;;;;;;8.68;6.47;;;;;;;24.28;37.19;100164.72;5056730;28;20497;-68
2023/05/19 07:07:20;;;;;;;8.88;5.90;;;;;;;24.22;37.30;100164.81;5067009;28;20052;-69
2023/05/19 07:09:46;;;;;;;12.27;6.15;;;;;;;24.24;37.19;100160.84;5037631;28;20052;-68
2023/05/19 07:12:12;;;;;;;8.85;6.03;;;;;;;24.18;37.27;100166.38;5053538;28;20040;-69
2023/05/19 07:14:38;;;;;;;8.73;5.85;;;;;;;24.38;37.10;100173.13;5020753;28;20047;-69
2023/05/19 07:17:05;;;;;;;9.70;6.40;;;;;;;24.23;37.26;100175.44;5004714;28;20040;-69
2023/05/19 07:19:32;;;;;;;10.40;6.65;;;;;;;24.20;37.31;100161.53;5005102;28;20036;-68
2023/05/19 07:21:58;;;;;;;9.40;5.88;;;;;;;24.43;36.93;100178.66;5004539;28;20153;-68
2023/05/19 07:24:26;;;;;;;10.23;6.38;;;;;;;24.52;36.85;100171.03;5004755;28;20490;-69
2023/05/19 07:26:52;;;;;;;10.57;6.63;;;;;;;24.70;36.84;100173.66;5020924;28;20036;-68
2023/05/19 07:29:18;;;;;;;11.93;6.43;;;;;;;24.86;36.37;100175.66;5037140;28;20101;-68
2023/05/19 07:31:44;;;;;;;11.55;6.65;;;;;;;24.99;35.91;100172.69;5022423;28;20135;-68
2023/05/19 07:34:10;;;;;;;8.85;6.35;;;;;;;25.05;35.38;100174.44;5033074;28;20356;-68
2023/05/19 07:36:38;;;;;;;10.05;6.15;;;;;;;25.12;35.30;100174.31;5016477;28;20084;-69
2023/05/19 07:39:04;;;;;;;8.77;6.40;;;;;;;25.14;35.45;100178.44;4996434;28;20068;-69
2023/05/19 07:41:30;;;;;;;9.93;7.10;;;;;;;25.10;34.87;100180.00;4996395;28;20467;-69
2023/05/19 07:43:56;;;;;;;12.98;6.75;;;;;;;25.29;34.55;100177.94;4996302;28;20049;-69
2023/05/19 07:46:22;;;;;;;12.88;6.90;;;;;;;25.48;34.16;100180.28;5014991;28;20036;-69
2023/05/19 07:48:49;;;;;;;9.27;5.93;;;;;;;25.78;34.09;100180.91;5015983;28;20131;-69
2023/05/19 07:51:16;;;;;;;10.98;6.55;;;;;;;25.64;33.55;100184.97;4999747;28;20033;-66
2023/05/19 07:53:41;;;;;;;11.48;6.68;;;;;;;25.81;33.13;100185.03;5016161;28;20053;-68
2023/05/19 07:56:07;;;;;;;10.85;6.90;;;;;;;25.92;32.46;100184.97;4999270;28;20075;-67
2023/05/19 07:58:33;;;;;;;11.38;6.55;;;;;;;25.96;32.84;100188.00;4983451;28;20137;-69
2023/05/19 08:01:01;;;;;;;10.30;6.53;;;;;;;26.14;32.52;100185.94;5015954;28;20149;-68
2023/05/19 08:03:29;;;;;;;21.17;7.05;;;;;;;26.38;32.25;100182.03;5033205;28;20106;-68
2023/05/19 08:05:55;;;;;;;10.95;6.55;;;;;;;26.44;31.85;100181.03;5020004;28;20055;-68
2023/05/19 08:08:25;;;;;;;12.93;6.28;;;;;;;26.59;31.28;100179.59;5057463;28;20044;-68
2023/05/19 08:10:53;;;;;;;11.93;6.70;;;;;;;26.75;31.09;100189.69;5056431;28;20048;-68
2023/05/19 08:13:19;;;;;;;12.68;6.78;;;;;;;26.77;31.19;100182.91;4979092;28;20438;-68
2023/05/19 08:15:46;;;;;;;12.27;6.75;;;;;;;27.02;30.77;100183.28;4996230;28;20053;-68
2023/05/19 08:18:13;;;;;;;12.73;6.72;;;;;;;26.91;30.79;100180.69;4964895;28;20053;-68
2023/05/19 08:20:39;;;;;;;14.55;7.03;;;;;;;26.87;30.75;100183.06;4979916;28;20493;-69
2023/05/19 08:23:05;;;;;;;14.35;7.85;;;;;;;26.88;31.09;100184.72;5028641;28;20049;-68
2023/05/19 08:25:31;;;;;;;13.95;8.00;;;;;;;26.97;31.10;100187.84;4963856;28;20169;-67
2023/05/19 08:27:57;;;;;;;15.85;7.57;;;;;;;27.09;31.04;100183.09;5028739;28;20554;-68
2023/05/19 08:30:23;;;;;;;13.77;7.07;;;;;;;27.06;31.43;100181.69;5009002;28;20061;-68
2023/05/19 08:32:49;;;;;;;11.23;7.15;;;;;;;27.06;31.43;100187.16;5009216;28;20041;-67
2023/05/19 08:35:16;;;;;;;14.05;8.00;;;;;;;27.11;31.44;100183.69;4992713;28;20435;-67
2023/05/19 08:37:41;;;;;;;12.98;7.15;;;;;;;27.16;31.15;100181.84;4992537;28;20042;-67
2023/05/19 08:40:11;;;;;;;10.70;6.88;;;;;;;27.40;30.72;100183.28;4991732;28;20087;-68
2023/05/19 08:42:38;;;;;;;9.50;6.97;;;;;;;27.24;30.55;100191.50;4976155;28;20046;-68
2023/05/19 08:45:04;;;;;;;16.48;7.10;;;;;;;27.28;30.12;100181.75;4992739;28;20459;-68
2023/05/19 08:47:32;;;;;;;14.10;7.43;;;;;;;27.28;30.34;100185.31;5009186;28;20144;-68
2023/05/19 08:50:06;;;;;;;13.95;7.50;;;;;;;27.75;30.04;100182.88;4987237;28;20195;-69
2023/05/19 08:53:00;;;;;;;14.15;7.00;;;;;;;28.08;29.04;100192.81;5069541;28;20044;-68
2023/05/19 08:55:33;;;;;;;11.57;7.22;;;;;;;28.41;27.88;100179.72;5069577;28;20040;-68
2023/05/19 08:58:01;;;;;;;13.98;6.90;;;;;;;28.45;27.23;100175.38;5035998;28;20080;-68
2023/05/19 09:00:28;;;;;;;17.33;7.25;;;;;;;28.75;26.63;100183.84;5061899;28;20036;-68
2023/05/19 09:02:54;;;;;;;11.50;6.47;;;;;;;29.11;26.16;100188.47;5040527;28;20047;-68
2023/05/19 09:05:20;;;;;;;13.70;7.15;;;;;;;29.58;24.97;100181.00;5077209;28;20138;-68
2023/05/19 09:07:47;;;;;;;13.18;6.53;;;;;;;30.30;23.79;100177.38;5077214;28;20130;-67
2023/05/19 09:10:14;;;;;;;12.30;7.10;;;;;;;31.51;22.53;100184.31;5094427;28;20039;-69
2023/05/19 09:12:47;;;;;;;11.63;6.20;;;;;;;33.29;20.18;100177.97;5092725;28;20070;-68
2023/05/19 09:15:20;;;;;;;11.55;5.75;;;;;;;35.55;18.05;100183.44;5027772;28;20446;-69
2023/05/19 09:17:46;;;;;;;6.65;5.18;;;;;;;37.65;15.73;100179.97;5060382;28;20071;-67
2023/05/19 09:20:16;;;;;;;12.02;5.57;;;;;;;39.16;14.50;100181.38;5077389;28;20040;-68
2023/05/19 09:22:44;;;;;;;9.88;5.00;;;;;;;40.84;12.86;100175.22;5060886;28;20040;-69
2023/05/19 09:25:21;;;;;;;9.95;5.30;;;;;;;42.92;11.08;100180.53;5077174;28;20040;-70
2023/05/19 09:27:48;;;;;;;12.23;5.53;;;;;;;43.52;10.24;100173.72;5042905;28;20469;-69
2023/05/19 09:30:15;;;;;;;10.48;4.95;;;;;;;44.46;9.82;100175.00;5059526;28;20135;-70
2023/05/19 09:32:41;;;;;;;11.80;4.47;;;;;;;45.19;9.42;100169.97;5075975;28;20129;-69
2023/05/19 09:35:08;;;;;;;11.48;4.95;;;;;;;46.35;8.20;100159.66;5059263;28;20048;-69
2023/05/19 09:37:33;;;;;;;13.48;4.57;;;;;;;46.92;7.96;100153.44;5042513;28;20358;-70
2023/05/19 09:39:59;;;;;;;6.35;4.15;;;;;;;46.44;7.59;100152.50;5042689;28;20044;-70
2023/05/19 09:42:26;;;;;;;24.17;4.75;;;;;;;45.97;7.88;100152.31;5025982;28;20572;-69
2023/05/19 09:45:02;;;;;;;9.35;4.18;;;;;;;46.42;7.71;100154.91;5075303;28;20085;-70
2023/05/19 09:47:40;;;;;;;12.02;4.80;;;;;;;47.34;7.14;100154.63;5059616;28;20059;-69
2023/05/19 09:50:11;;;;;;;9.20;3.50;;;;;;;47.73;6.42;100156.91;5042131;28;20051;-70
2023/05/19 09:52:38;;;;;;;10.02;3.40;;;;;;;48.19;5.83;100155.13;5058949;28;20062;-70
2023/05/19 09:55:05;;;;;;;7.78;3.42;;;;;;;48.46;5.26;100145.13;5058891;28;20108;-70
2023/05/19 09:57:34;;;;;;;10.85;3.17;;;;;;;48.32;5.45;100147.91;5058988;28;20501;-70
2023/05/19 10:00:13;;;;;;;6.20;3.28;;;;;;;48.41;5.68;100145.56;5059226;28;20044;-69
2023/05/19 10:02:44;;;;;;;14.68;3.33;;;;;;;48.33;5.56;100141.09;5043479;28;20055;-69
2023/05/19 10:05:18;;;;;;;11.70;3.30;;;;;;;47.15;5.76;100142.75;5075377;28;20127;-71
2023/05/19 10:07:50;;;;;;;8.68;2.90;;;;;;;46.29;6.26;100147.91;5075333;28;20043;-69
2023/05/19 10:10:16;;;;;;;9.20;3.10;;;;;;;46.49;6.23;100140.94;5058953;28;20052;-67
2023/05/19 10:12:43;;;;;;;10.13;2.78;;;;;;;46.95;5.73;100141.44;5041061;28;20067;-69
2023/05/19 10:15:11;;;;;;;7.53;3.17;;;;;;;47.52;5.83;100141.47;5058444;28;20089;-70
2023/05/19 10:17:41;;;;;;;13.90;3.38;;;;;;;48.00;5.40;100146.97;5041881;28;20051;-69
2023/05/19 10:20:09;;;;;;;7.43;3.45;;;;;;;48.13;5.30;100142.63;5041976;28;20039;-70
2023/05/19 10:22:37;;;;;;;10.80;3.10;;;;;;;48.16;5.19;100137.00;5041761;28;20394;-69
2023/05/19 10:25:04;;;;;;;8.23;3.03;;;;;;;48.24;4.99;100137.81;5025233;28;20032;-69
2023/05/19 10:27:30;;;;;;;4.72;2.80;;;;;;;47.80;5.21;100137.19;5041471;28;20512;-69
2023/05/19 10:29:58;;;;;;;9.98;2.70;;;;;;;47.30;5.35;100136.88;5024765;28;20036;-69
2023/05/19 10:32:26;;;;;;;12.43;2.28;;;;;;;46.73;5.33;100134.78;5041181;28;20047;-69
2023/05/19 10:35:11;;;;;;;4.65;2.28;;;;;;;46.16;5.69;100138.16;5041586;28;20036;-69
2023/05/19 10:37:50;;;;;;;5.53;2.17;;;;;;;45.28;6.27;100136.03;5041527;28;20052;-69
2023/05/19 10:40:23;;;;;;;9.77;2.40;;;;;;;44.59;6.52;100128.81;5074957;28;20060;-68
2023/05/19 10:42:59;;;;;;;9.80;2.42;;;;;;;43.67;7.10;100122.47;5057917;28;20048;-70
2023/05/19 10:45:27;;;;;;;7.45;2.55;;;;;;;43.14;7.20;100130.41;5074621;28;20529;-70
2023/05/19 10:47:53;;;;;;;7.30;2.50;;;;;;;42.50;7.51;100120.69;5057677;28;20048;-69
2023/05/19 10:50:19;;;;;;;5.38;2.00;;;;;;;41.90;7.65;100120.94;5057742;28;20039;-68
2023/05/19 10:52:53;;;;;;;7.10;2.63;;;;;;;41.32;8.31;100120.31;5041637;28;20047;-68
2023/05/19 10:55:48;;;;;;;7.85;2.35;;;;;;;40.97;8.65;100123.91;5058145;28;20044;-68
2023/05/19 10:58:14;;;;;;;8.85;2.53;;;;;;;40.39;8.66;100116.72;5041703;28;20112;-69
2023/05/19 11:00:40;;;;;;;5.22;2.20;;;;;;;39.94;9.11;100118.56;5040436;28;20062;-68
2023/05/19 11:03:17;;;;;;;19.17;2.70;;;;;;;39.49;9.37;100101.72;5057510;28;20382;-69
2023/05/19 11:05:45;;;;;;;11.98;2.40;;;;;;;38.97;9.83;100105.06;5057879;28;20134;-69
2023/05/19 11:08:11;;;;;;;4.32;2.20;;;;;;;38.64;10.08;100105.72;5057779;28;20044;-69
2023/05/19 11:10:38;;;;;;;10.80;2.65;;;;;;;38.29;10.22;100106.94;5057092;28;20489;-69
2023/05/19 11:13:05;;;;;;;6.10;2.55;;;;;;;37.89;10.71;100097.16;5040131;28;20051;-69
2023/05/19 11:15:37;;;;;;;11.07;2.50;;;;;;;37.74;11.22;100096.81;5091826;28;20040;-69
2023/05/19 11:18:03;;;;;;;4.07;2.40;;;;;;;37.42;11.07;100098.06;5040968;28;20131;-73
2023/05/19 11:20:33;;;;;;;8.18;2.63;;;;;;;36.87;11.56;100105.22;5024399;28;20082;-70
2023/05/19 11:23:07;;;;;;;15.77;2.35;;;;;;;36.68;11.50;100099.09;5057844;28;20561;-69
2023/05/19 11:25:47;;;;;;;9.38;2.55;;;;;;;36.23;11.67;100097.50;5057075;28;20050;-69
2023/05/19 11:28:15;;;;;;;12.27;2.53;;;;;;;35.75;12.27;100102.81;5057738;28;20048;-68
2023/05/19 11:30:42;;;;;;;12.02;2.22;;;;;;;35.39;12.33;100096.44;5057111;28;20054;-68
2023/05/19 11:33:09;;;;;;;7.18;2.20;;;;;;;35.10;12.20;100099.53;5073490;28;20366;-69
2023/05/19 11:35:36;;;;;;;5.78;2.38;;;;;;;34.94;12.72;100103.72;5040538;28;20086;-69